sensor_id;sensor_type;location;lat;lon;timestamp;P1;durP1;ratioP1;P2;durP2;ratioP2
51566;SDS011;37657;53.182;5.638;2023-03-14T00:01:51;11.63;;;5.32;;
51566;SDS011;37657;53.182;5.638;2023-03-14T00:04:17;17.02;;;6.60;;
51566;SDS011;37657;53.182;5.638;2023-03-14T00:06:42;13.82;;;6.50;;
51566;SDS011;37657;53.182;5.638;2023-03-14T00:09:08;7.53;;;4.18;;
51566;SDS011;37657;53.182;5.638;2023-03-14T00:11:34;24.63;;;6.97;;
51566;SDS011;37657;53.182;5.638;2023-03-14T00:13:59;16.05;;;5.97;;
51566;SDS011;37657;53.182;5.638;2023-03-14T00:16:25;10.70;;;5.90;;
51566;SDS011;37657;53.182;5.638;2023-03-14T00:18:51;12.57;;;5.75;;
51566;SDS011;37657;53.182;5.638;2023-03-14T00:21:17;9.85;;;5.32;;
51566;SDS011;37657;53.182;5.638;2023-03-14T00:23:43;8.43;;;4.95;;
51566;SDS011;37657;53.182;5.638;2023-03-14T00:26:13;11.35;;;5.93;;
51566;SDS011;37657;53.182;5.638;2023-03-14T00:28:41;8.38;;;4.85;;
51566;SDS011;37657;53.182;5.638;2023-03-14T00:31:07;10.52;;;5.05;;
51566;SDS011;37657;53.182;5.638;2023-03-14T00:33:35;10.95;;;5.65;;
51566;SDS011;37657;53.182;5.638;2023-03-14T00:36:02;10.98;;;4.97;;
51566;SDS011;37657;53.182;5.638;2023-03-14T00:38:30;11.13;;;5.30;;
51566;SDS011;37657;53.182;5.638;2023-03-14T00:40:56;14.75;;;5.35;;
51566;SDS011;37657;53.182;5.638;2023-03-14T00:43:23;14.65;;;5.95;;
51566;SDS011;37657;53.182;5.638;2023-03-14T00:45:49;23.35;;;6.43;;
51566;SDS011;37657;53.182;5.638;2023-03-14T00:48:16;7.72;;;5.47;;
51566;SDS011;37657;53.182;5.638;2023-03-14T00:50:43;9.25;;;5.07;;
51566;SDS011;37657;53.182;5.638;2023-03-14T00:53:08;11.55;;;5.40;;
51566;SDS011;37657;53.182;5.638;2023-03-14T00:55:41;14.63;;;6.22;;
51566;SDS011;37657;53.182;5.638;2023-03-14T00:58:08;12.65;;;5.75;;
51566;SDS011;37657;53.182;5.638;2023-03-14T01:00:35;9.73;;;5.63;;
51566;SDS011;37657;53.182;5.638;2023-03-14T01:03:01;12.63;;;5.57;;
51566;SDS011;37657;53.182;5.638;2023-03-14T01:05:27;27.65;;;6.18;;
51566;SDS011;37657;53.182;5.638;2023-03-14T01:07:53;15.32;;;4.85;;
51566;SDS011;37657;53.182;5.638;2023-03-14T01:10:18;11.25;;;5.25;;
51566;SDS011;37657;53.182;5.638;2023-03-14T01:12:44;16.13;;;6.28;;
51566;SDS011;37657;53.182;5.638;2023-03-14T01:15:09;17.80;;;6.95;;
51566;SDS011;37657;53.182;5.638;2023-03-14T01:17:35;10.15;;;4.93;;
51566;SDS011;37657;53.182;5.638;2023-03-14T01:20:03;16.80;;;6.45;;
51566;SDS011;37657;53.182;5.638;2023-03-14T01:22:30;12.65;;;5.43;;
51566;SDS011;37657;53.182;5.638;2023-03-14T01:24:55;17.67;;;5.75;;
51566;SDS011;37657;53.182;5.638;2023-03-14T01:27:21;9.23;;;5.57;;
51566;SDS011;37657;53.182;5.638;2023-03-14T01:29:46;12.40;;;6.35;;
51566;SDS011;37657;53.182;5.638;2023-03-14T01:32:12;12.45;;;6.60;;
51566;SDS011;37657;53.182;5.638;2023-03-14T01:34:38;13.82;;;6.15;;
51566;SDS011;37657;53.182;5.638;2023-03-14T01:37:03;12.48;;;5.75;;
51566;SDS011;37657;53.182;5.638;2023-03-14T01:39:29;19.85;;;6.03;;
51566;SDS011;37657;53.182;5.638;2023-03-14T01:41:54;20.13;;;7.13;;
51566;SDS011;37657;53.182;5.638;2023-03-14T01:44:20;13.18;;;6.38;;
51566;SDS011;37657;53.182;5.638;2023-03-14T01:46:46;12.77;;;5.90;;
51566;SDS011;37657;53.182;5.638;2023-03-14T01:52:05;12.75;;;6.72;;
51566;SDS011;37657;53.182;5.638;2023-03-14T01:54:48;15.18;;;6.55;;
51566;SDS011;37657;53.182;5.638;2023-03-14T01:59:43;12.25;;;5.30;;
51566;SDS011;37657;53.182;5.638;2023-03-14T02:02:16;17.42;;;5.95;;
51566;SDS011;37657;53.182;5.638;2023-03-14T02:04:42;18.13;;;6.05;;
51566;SDS011;37657;53.182;5.638;2023-03-14T02:07:13;17.38;;;6.47;;
51566;SDS011;37657;53.182;5.638;2023-03-14T02:09:42;14.02;;;7.25;;
51566;SDS011;37657;53.182;5.638;2023-03-14T02:12:09;12.73;;;5.90;;
51566;SDS011;37657;53.182;5.638;2023-03-14T02:14:36;14.73;;;6.55;;
51566;SDS011;37657;53.182;5.638;2023-03-14T02:17:03;20.45;;;6.43;;
51566;SDS011;37657;53.182;5.638;2023-03-14T02:19:38;12.82;;;6.18;;
51566;SDS011;37657;53.182;5.638;2023-03-14T02:22:21;20.92;;;6.05;;
51566;SDS011;37657;53.182;5.638;2023-03-14T02:24:50;21.25;;;5.28;;
51566;SDS011;37657;53.182;5.638;2023-03-14T02:27:27;20.52;;;7.07;;
51566;SDS011;37657;53.182;5.638;2023-03-14T02:32:34;14.40;;;6.43;;
51566;SDS011;37657;53.182;5.638;2023-03-14T02:35:06;9.68;;;6.47;;
51566;SDS011;37657;53.182;5.638;2023-03-14T02:37:37;15.40;;;5.72;;
51566;SDS011;37657;53.182;5.638;2023-03-14T02:40:07;25.52;;;6.97;;
51566;SDS011;37657;53.182;5.638;2023-03-14T02:42:33;13.40;;;6.22;;
51566;SDS011;37657;53.182;5.638;2023-03-14T02:45:01;15.95;;;7.63;;
51566;SDS011;37657;53.182;5.638;2023-03-14T02:47:54;19.33;;;6.00;;
51566;SDS011;37657;53.182;5.638;2023-03-14T02:50:24;12.55;;;6.25;;
51566;SDS011;37657;53.182;5.638;2023-03-14T02:52:51;9.52;;;4.68;;
51566;SDS011;37657;53.182;5.638;2023-03-14T02:55:21;12.93;;;6.88;;
51566;SDS011;37657;53.182;5.638;2023-03-14T02:57:47;20.45;;;8.27;;
51566;SDS011;37657;53.182;5.638;2023-03-14T03:00:12;17.98;;;7.43;;
51566;SDS011;37657;53.182;5.638;2023-03-14T03:02:39;22.88;;;7.22;;
51566;SDS011;37657;53.182;5.638;2023-03-14T03:05:05;15.77;;;7.35;;
51566;SDS011;37657;53.182;5.638;2023-03-14T03:07:31;15.50;;;7.78;;
51566;SDS011;37657;53.182;5.638;2023-03-14T03:09:56;24.25;;;6.65;;
51566;SDS011;37657;53.182;5.638;2023-03-14T03:12:22;13.27;;;7.40;;
51566;SDS011;37657;53.182;5.638;2023-03-14T03:14:47;35.67;;;8.05;;
51566;SDS011;37657;53.182;5.638;2023-03-14T03:17:13;14.57;;;6.68;;
51566;SDS011;37657;53.182;5.638;2023-03-14T03:19:38;13.90;;;7.18;;
51566;SDS011;37657;53.182;5.638;2023-03-14T03:22:04;14.48;;;6.80;;
51566;SDS011;37657;53.182;5.638;2023-03-14T03:24:29;15.60;;;6.90;;
51566;SDS011;37657;53.182;5.638;2023-03-14T03:26:55;14.63;;;7.60;;
51566;SDS011;37657;53.182;5.638;2023-03-14T03:29:20;15.18;;;7.55;;
51566;SDS011;37657;53.182;5.638;2023-03-14T03:31:46;13.80;;;5.72;;
51566;SDS011;37657;53.182;5.638;2023-03-14T03:34:12;26.60;;;7.78;;
51566;SDS011;37657;53.182;5.638;2023-03-14T03:36:38;11.20;;;6.22;;
51566;SDS011;37657;53.182;5.638;2023-03-14T03:39:04;13.45;;;5.95;;
51566;SDS011;37657;53.182;5.638;2023-03-14T03:41:30;14.68;;;7.82;;
51566;SDS011;37657;53.182;5.638;2023-03-14T03:43:56;15.18;;;7.93;;
51566;SDS011;37657;53.182;5.638;2023-03-14T03:46:22;23.50;;;8.70;;
51566;SDS011;37657;53.182;5.638;2023-03-14T03:48:48;26.10;;;9.18;;
51566;SDS011;37657;53.182;5.638;2023-03-14T03:51:14;12.80;;;7.22;;
51566;SDS011;37657;53.182;5.638;2023-03-14T03:53:40;13.18;;;6.43;;
51566;SDS011;37657;53.182;5.638;2023-03-14T03:56:06;15.27;;;6.75;;
51566;SDS011;37657;53.182;5.638;2023-03-14T03:58:32;14.35;;;7.88;;
51566;SDS011;37657;53.182;5.638;2023-03-14T04:00:58;30.92;;;7.90;;
51566;SDS011;37657;53.182;5.638;2023-03-14T04:03:24;15.23;;;7.43;;
51566;SDS011;37657;53.182;5.638;2023-03-14T04:06:03;26.85;;;9.60;;
51566;SDS011;37657;53.182;5.638;2023-03-14T04:08:30;19.83;;;8.98;;
51566;SDS011;37657;53.182;5.638;2023-03-14T04:10:56;20.00;;;9.63;;
51566;SDS011;37657;53.182;5.638;2023-03-14T04:13:23;25.60;;;7.82;;
51566;SDS011;37657;53.182;5.638;2023-03-14T04:15:49;18.77;;;7.47;;
51566;SDS011;37657;53.182;5.638;2023-03-14T04:18:15;22.45;;;8.57;;
51566;SDS011;37657;53.182;5.638;2023-03-14T04:20:41;14.75;;;7.20;;
51566;SDS011;37657;53.182;5.638;2023-03-14T04:23:06;18.42;;;8.00;;
51566;SDS011;37657;53.182;5.638;2023-03-14T04:25:32;16.70;;;8.25;;
51566;SDS011;37657;53.182;5.638;2023-03-14T04:27:57;21.08;;;7.45;;
51566;SDS011;37657;53.182;5.638;2023-03-14T04:30:23;10.38;;;5.88;;
51566;SDS011;37657;53.182;5.638;2023-03-14T04:32:48;16.83;;;6.20;;
51566;SDS011;37657;53.182;5.638;2023-03-14T04:35:14;13.35;;;6.63;;
51566;SDS011;37657;53.182;5.638;2023-03-14T04:37:40;11.77;;;5.32;;
51566;SDS011;37657;53.182;5.638;2023-03-14T04:40:07;13.02;;;5.90;;
51566;SDS011;37657;53.182;5.638;2023-03-14T04:42:33;12.73;;;5.35;;
51566;SDS011;37657;53.182;5.638;2023-03-14T04:44:59;10.48;;;4.68;;
51566;SDS011;37657;53.182;5.638;2023-03-14T04:47:25;11.50;;;5.20;;
51566;SDS011;37657;53.182;5.638;2023-03-14T04:49:51;10.75;;;5.07;;
51566;SDS011;37657;53.182;5.638;2023-03-14T04:52:16;11.10;;;4.45;;
51566;SDS011;37657;53.182;5.638;2023-03-14T04:54:42;14.48;;;4.47;;
51566;SDS011;37657;53.182;5.638;2023-03-14T04:57:07;11.85;;;5.22;;
51566;SDS011;37657;53.182;5.638;2023-03-14T04:59:33;7.70;;;3.67;;
51566;SDS011;37657;53.182;5.638;2023-03-14T05:01:59;10.85;;;5.30;;
51566;SDS011;37657;53.182;5.638;2023-03-14T05:04:24;8.05;;;4.22;;
51566;SDS011;37657;53.182;5.638;2023-03-14T05:06:50;9.25;;;4.10;;
51566;SDS011;37657;53.182;5.638;2023-03-14T05:09:15;14.40;;;4.50;;
51566;SDS011;37657;53.182;5.638;2023-03-14T05:11:41;7.47;;;4.43;;
51566;SDS011;37657;53.182;5.638;2023-03-14T05:14:06;12.20;;;4.50;;
51566;SDS011;37657;53.182;5.638;2023-03-14T05:16:32;6.07;;;3.50;;
51566;SDS011;37657;53.182;5.638;2023-03-14T05:18:57;5.68;;;3.30;;
51566;SDS011;37657;53.182;5.638;2023-03-14T05:21:23;5.97;;;3.15;;
51566;SDS011;37657;53.182;5.638;2023-03-14T05:23:49;10.45;;;3.08;;
51566;SDS011;37657;53.182;5.638;2023-03-14T05:26:14;10.20;;;3.20;;
51566;SDS011;37657;53.182;5.638;2023-03-14T05:28:42;6.82;;;3.95;;
51566;SDS011;37657;53.182;5.638;2023-03-14T05:31:08;8.13;;;3.83;;
51566;SDS011;37657;53.182;5.638;2023-03-14T05:33:34;10.27;;;3.10;;
51566;SDS011;37657;53.182;5.638;2023-03-14T05:35:59;6.82;;;2.95;;
51566;SDS011;37657;53.182;5.638;2023-03-14T05:38:25;14.45;;;4.75;;
51566;SDS011;37657;53.182;5.638;2023-03-14T05:40:50;11.63;;;2.92;;
51566;SDS011;37657;53.182;5.638;2023-03-14T05:43:16;4.07;;;1.85;;
51566;SDS011;37657;53.182;5.638;2023-03-14T05:45:42;7.50;;;3.60;;
51566;SDS011;37657;53.182;5.638;2023-03-14T05:48:08;6.15;;;3.08;;
51566;SDS011;37657;53.182;5.638;2023-03-14T05:50:33;5.22;;;2.28;;
51566;SDS011;37657;53.182;5.638;2023-03-14T05:52:59;9.00;;;2.60;;
51566;SDS011;37657;53.182;5.638;2023-03-14T05:55:25;7.65;;;3.50;;
51566;SDS011;37657;53.182;5.638;2023-03-14T05:57:50;8.90;;;4.63;;
51566;SDS011;37657;53.182;5.638;2023-03-14T06:00:17;9.43;;;3.25;;
51566;SDS011;37657;53.182;5.638;2023-03-14T06:02:43;17.15;;;5.28;;
51566;SDS011;37657;53.182;5.638;2023-03-14T06:05:08;12.98;;;4.32;;
51566;SDS011;37657;53.182;5.638;2023-03-14T06:07:34;12.50;;;4.20;;
51566;SDS011;37657;53.182;5.638;2023-03-14T06:09:59;9.52;;;3.58;;
51566;SDS011;37657;53.182;5.638;2023-03-14T06:12:25;6.25;;;2.63;;
51566;SDS011;37657;53.182;5.638;2023-03-14T06:14:51;20.85;;;4.70;;
51566;SDS011;37657;53.182;5.638;2023-03-14T06:17:16;5.50;;;2.50;;
51566;SDS011;37657;53.182;5.638;2023-03-14T06:19:42;3.90;;;1.75;;
51566;SDS011;37657;53.182;5.638;2023-03-14T06:22:07;5.63;;;2.60;;
51566;SDS011;37657;53.182;5.638;2023-03-14T06:24:33;7.72;;;3.55;;
51566;SDS011;37657;53.182;5.638;2023-03-14T06:26:59;16.30;;;2.88;;
51566;SDS011;37657;53.182;5.638;2023-03-14T06:29:24;7.28;;;2.33;;
51566;SDS011;37657;53.182;5.638;2023-03-14T06:31:50;4.43;;;1.80;;
51566;SDS011;37657;53.182;5.638;2023-03-14T06:34:15;8.10;;;2.72;;
51566;SDS011;37657;53.182;5.638;2023-03-14T06:36:41;7.82;;;2.55;;
51566;SDS011;37657;53.182;5.638;2023-03-14T06:39:06;4.65;;;1.98;;
51566;SDS011;37657;53.182;5.638;2023-03-14T06:41:32;6.93;;;2.17;;
51566;SDS011;37657;53.182;5.638;2023-03-14T06:43:57;3.85;;;2.15;;
51566;SDS011;37657;53.182;5.638;2023-03-14T06:46:23;2.47;;;1.50;;
51566;SDS011;37657;53.182;5.638;2023-03-14T06:48:49;4.95;;;1.67;;
51566;SDS011;37657;53.182;5.638;2023-03-14T06:51:14;6.70;;;2.45;;
51566;SDS011;37657;53.182;5.638;2023-03-14T06:53:40;5.45;;;1.50;;
51566;SDS011;37657;53.182;5.638;2023-03-14T06:56:05;5.45;;;1.92;;
51566;SDS011;37657;53.182;5.638;2023-03-14T06:58:31;6.38;;;2.47;;
51566;SDS011;37657;53.182;5.638;2023-03-14T07:00:57;6.38;;;3.25;;
51566;SDS011;37657;53.182;5.638;2023-03-14T07:03:23;6.70;;;3.25;;
51566;SDS011;37657;53.182;5.638;2023-03-14T07:05:49;10.50;;;2.88;;
51566;SDS011;37657;53.182;5.638;2023-03-14T07:08:15;23.08;;;4.95;;
51566;SDS011;37657;53.182;5.638;2023-03-14T07:10:41;11.63;;;2.47;;
51566;SDS011;37657;53.182;5.638;2023-03-14T07:13:06;6.03;;;3.47;;
51566;SDS011;37657;53.182;5.638;2023-03-14T07:15:32;9.50;;;3.97;;
51566;SDS011;37657;53.182;5.638;2023-03-14T07:17:58;7.63;;;2.60;;
51566;SDS011;37657;53.182;5.638;2023-03-14T07:20:23;10.43;;;3.05;;
51566;SDS011;37657;53.182;5.638;2023-03-14T07:22:49;5.70;;;3.55;;
51566;SDS011;37657;53.182;5.638;2023-03-14T07:25:16;7.50;;;3.13;;
51566;SDS011;37657;53.182;5.638;2023-03-14T07:27:45;11.23;;;3.38;;
51566;SDS011;37657;53.182;5.638;2023-03-14T07:30:13;5.45;;;3.63;;
51566;SDS011;37657;53.182;5.638;2023-03-14T07:32:39;6.43;;;2.92;;
51566;SDS011;37657;53.182;5.638;2023-03-14T07:35:05;11.45;;;3.47;;
51566;SDS011;37657;53.182;5.638;2023-03-14T07:37:31;8.38;;;4.47;;
51566;SDS011;37657;53.182;5.638;2023-03-14T07:39:56;12.98;;;3.45;;
51566;SDS011;37657;53.182;5.638;2023-03-14T07:42:22;8.55;;;2.60;;
51566;SDS011;37657;53.182;5.638;2023-03-14T07:44:48;13.25;;;5.30;;
51566;SDS011;37657;53.182;5.638;2023-03-14T07:47:13;7.78;;;3.40;;
51566;SDS011;37657;53.182;5.638;2023-03-14T07:49:39;12.23;;;4.22;;
51566;SDS011;37657;53.182;5.638;2023-03-14T07:52:04;10.32;;;4.30;;
51566;SDS011;37657;53.182;5.638;2023-03-14T07:54:30;11.40;;;5.18;;
51566;SDS011;37657;53.182;5.638;2023-03-14T07:56:55;14.20;;;6.50;;
51566;SDS011;37657;53.182;5.638;2023-03-14T07:59:23;12.35;;;4.90;;
51566;SDS011;37657;53.182;5.638;2023-03-14T08:01:49;12.88;;;5.90;;
51566;SDS011;37657;53.182;5.638;2023-03-14T08:04:14;12.25;;;6.15;;
51566;SDS011;37657;53.182;5.638;2023-03-14T08:06:40;9.32;;;5.40;;
51566;SDS011;37657;53.182;5.638;2023-03-14T08:09:06;44.38;;;6.80;;
51566;SDS011;37657;53.182;5.638;2023-03-14T08:11:31;14.90;;;6.78;;
51566;SDS011;37657;53.182;5.638;2023-03-14T08:13:57;11.05;;;4.57;;
51566;SDS011;37657;53.182;5.638;2023-03-14T08:16:22;19.60;;;6.03;;
51566;SDS011;37657;53.182;5.638;2023-03-14T08:18:48;16.20;;;4.95;;
51566;SDS011;37657;53.182;5.638;2023-03-14T08:21:14;9.73;;;4.28;;
51566;SDS011;37657;53.182;5.638;2023-03-14T08:23:39;19.42;;;6.75;;
51566;SDS011;37657;53.182;5.638;2023-03-14T08:26:05;11.07;;;5.38;;
51566;SDS011;37657;53.182;5.638;2023-03-14T08:28:31;29.52;;;8.95;;
51566;SDS011;37657;53.182;5.638;2023-03-14T08:30:58;10.52;;;6.20;;
51566;SDS011;37657;53.182;5.638;2023-03-14T08:33:25;33.63;;;9.95;;
51566;SDS011;37657;53.182;5.638;2023-03-14T08:35:55;18.98;;;7.13;;
51566;SDS011;37657;53.182;5.638;2023-03-14T08:38:22;16.55;;;6.43;;
51566;SDS011;37657;53.182;5.638;2023-03-14T08:40:48;14.82;;;5.35;;
51566;SDS011;37657;53.182;5.638;2023-03-14T08:43:15;14.55;;;5.35;;
51566;SDS011;37657;53.182;5.638;2023-03-14T08:45:40;9.52;;;4.38;;
51566;SDS011;37657;53.182;5.638;2023-03-14T08:48:06;18.80;;;7.70;;
51566;SDS011;37657;53.182;5.638;2023-03-14T08:50:32;10.00;;;5.32;;
51566;SDS011;37657;53.182;5.638;2023-03-14T08:52:58;15.52;;;5.50;;
51566;SDS011;37657;53.182;5.638;2023-03-14T08:55:25;16.35;;;5.65;;
51566;SDS011;37657;53.182;5.638;2023-03-14T08:57:52;13.80;;;7.13;;
51566;SDS011;37657;53.182;5.638;2023-03-14T09:00:18;22.15;;;8.35;;
51566;SDS011;37657;53.182;5.638;2023-03-14T09:02:44;22.95;;;5.90;;
51566;SDS011;37657;53.182;5.638;2023-03-14T09:05:10;19.08;;;5.50;;
51566;SDS011;37657;53.182;5.638;2023-03-14T09:07:36;14.77;;;5.78;;
51566;SDS011;37657;53.182;5.638;2023-03-14T09:10:02;12.65;;;6.07;;
51566;SDS011;37657;53.182;5.638;2023-03-14T09:12:28;30.92;;;10.05;;
51566;SDS011;37657;53.182;5.638;2023-03-14T09:14:54;17.02;;;5.57;;
51566;SDS011;37657;53.182;5.638;2023-03-14T09:17:20;17.63;;;6.43;;
51566;SDS011;37657;53.182;5.638;2023-03-14T09:19:45;29.38;;;7.13;;
51566;SDS011;37657;53.182;5.638;2023-03-14T09:22:11;9.30;;;5.13;;
51566;SDS011;37657;53.182;5.638;2023-03-14T09:24:36;17.20;;;6.65;;
51566;SDS011;37657;53.182;5.638;2023-03-14T09:27:02;12.70;;;4.75;;
51566;SDS011;37657;53.182;5.638;2023-03-14T09:29:27;16.38;;;7.25;;
51566;SDS011;37657;53.182;5.638;2023-03-14T09:31:53;10.80;;;3.92;;
51566;SDS011;37657;53.182;5.638;2023-03-14T09:34:19;9.90;;;4.68;;
51566;SDS011;37657;53.182;5.638;2023-03-14T09:36:45;9.70;;;5.35;;
51566;SDS011;37657;53.182;5.638;2023-03-14T09:39:11;8.65;;;5.53;;
51566;SDS011;37657;53.182;5.638;2023-03-14T09:41:37;12.25;;;4.38;;
51566;SDS011;37657;53.182;5.638;2023-03-14T09:44:08;15.45;;;7.18;;
51566;SDS011;37657;53.182;5.638;2023-03-14T09:46:39;16.02;;;4.72;;
51566;SDS011;37657;53.182;5.638;2023-03-14T09:49:17;21.67;;;5.78;;
51566;SDS011;37657;53.182;5.638;2023-03-14T09:51:46;9.52;;;3.72;;
51566;SDS011;37657;53.182;5.638;2023-03-14T09:54:21;12.10;;;4.28;;
51566;SDS011;37657;53.182;5.638;2023-03-14T09:56:51;8.70;;;3.97;;
51566;SDS011;37657;53.182;5.638;2023-03-14T09:59:17;21.63;;;7.18;;
51566;SDS011;37657;53.182;5.638;2023-03-14T10:01:43;13.80;;;4.07;;
51566;SDS011;37657;53.182;5.638;2023-03-14T10:04:12;10.05;;;4.78;;
51566;SDS011;37657;53.182;5.638;2023-03-14T10:06:42;14.23;;;5.32;;
51566;SDS011;37657;53.182;5.638;2023-03-14T10:09:13;14.85;;;4.97;;
51566;SDS011;37657;53.182;5.638;2023-03-14T10:11:50;9.30;;;3.67;;
51566;SDS011;37657;53.182;5.638;2023-03-14T10:14:27;10.30;;;4.00;;
51566;SDS011;37657;53.182;5.638;2023-03-14T10:17:04;10.55;;;3.88;;
51566;SDS011;37657;53.182;5.638;2023-03-14T10:19:35;7.85;;;3.25;;
51566;SDS011;37657;53.182;5.638;2023-03-14T10:22:02;5.03;;;2.78;;
51566;SDS011;37657;53.182;5.638;2023-03-14T10:24:36;15.00;;;5.38;;
51566;SDS011;37657;53.182;5.638;2023-03-14T10:27:05;7.55;;;4.00;;
51566;SDS011;37657;53.182;5.638;2023-03-14T10:29:59;10.40;;;4.53;;
51566;SDS011;37657;53.182;5.638;2023-03-14T10:32:39;9.32;;;3.53;;
51566;SDS011;37657;53.182;5.638;2023-03-14T10:37:53;10.00;;;3.83;;
51566;SDS011;37657;53.182;5.638;2023-03-14T10:40:28;5.95;;;3.03;;
51566;SDS011;37657;53.182;5.638;2023-03-14T10:42:58;11.32;;;5.22;;
51566;SDS011;37657;53.182;5.638;2023-03-14T10:48:05;5.18;;;2.85;;
51566;SDS011;37657;53.182;5.638;2023-03-14T10:53:21;8.85;;;2.75;;
51566;SDS011;37657;53.182;5.638;2023-03-14T10:55:47;9.73;;;2.70;;
51566;SDS011;37657;53.182;5.638;2023-03-14T10:58:30;5.45;;;2.97;;
51566;SDS011;37657;53.182;5.638;2023-03-14T11:03:39;3.50;;;2.03;;
51566;SDS011;37657;53.182;5.638;2023-03-14T11:06:14;5.88;;;2.78;;
51566;SDS011;37657;53.182;5.638;2023-03-14T11:09:50;11.73;;;2.47;;
51566;SDS011;37657;53.182;5.638;2023-03-14T11:11:47;5.93;;;3.33;;
51566;SDS011;37657;53.182;5.638;2023-03-14T11:19:41;5.15;;;2.50;;
51566;SDS011;37657;53.182;5.638;2023-03-14T11:22:21;4.10;;;2.25;;
51566;SDS011;37657;53.182;5.638;2023-03-14T11:25:13;8.32;;;3.33;;
51566;SDS011;37657;53.182;5.638;2023-03-14T11:27:45;6.68;;;3.10;;
51566;SDS011;37657;53.182;5.638;2023-03-14T11:30:18;4.93;;;2.72;;
51566;SDS011;37657;53.182;5.638;2023-03-14T11:32:52;5.10;;;2.63;;
51566;SDS011;37657;53.182;5.638;2023-03-14T11:35:32;4.40;;;2.10;;
51566;SDS011;37657;53.182;5.638;2023-03-14T11:38:22;3.40;;;2.05;;
51566;SDS011;37657;53.182;5.638;2023-03-14T11:41:00;3.88;;;2.63;;
51566;SDS011;37657;53.182;5.638;2023-03-14T11:43:28;15.80;;;3.50;;
51566;SDS011;37657;53.182;5.638;2023-03-14T11:46:10;10.15;;;3.65;;
51566;SDS011;37657;53.182;5.638;2023-03-14T11:48:53;13.18;;;3.58;;
51566;SDS011;37657;53.182;5.638;2023-03-14T11:51:32;6.45;;;2.97;;
51566;SDS011;37657;53.182;5.638;2023-03-14T11:54:04;9.25;;;4.18;;
51566;SDS011;37657;53.182;5.638;2023-03-14T11:59:27;4.30;;;2.50;;
51566;SDS011;37657;53.182;5.638;2023-03-14T12:01:57;5.20;;;2.33;;
51566;SDS011;37657;53.182;5.638;2023-03-14T12:04:31;7.82;;;3.10;;
51566;SDS011;37657;53.182;5.638;2023-03-14T12:07:07;6.82;;;3.08;;
51566;SDS011;37657;53.182;5.638;2023-03-14T12:09:39;3.75;;;2.08;;
51566;SDS011;37657;53.182;5.638;2023-03-14T12:12:05;4.68;;;2.08;;
51566;SDS011;37657;53.182;5.638;2023-03-14T12:14:36;4.82;;;2.28;;
51566;SDS011;37657;53.182;5.638;2023-03-14T12:19:38;7.47;;;4.82;;
51566;SDS011;37657;53.182;5.638;2023-03-14T12:22:23;7.65;;;4.18;;
51566;SDS011;37657;53.182;5.638;2023-03-14T12:24:56;8.95;;;3.38;;
51566;SDS011;37657;53.182;5.638;2023-03-14T12:27:44;7.57;;;3.05;;
51566;SDS011;37657;53.182;5.638;2023-03-14T12:33:10;6.47;;;2.80;;
51566;SDS011;37657;53.182;5.638;2023-03-14T12:35:35;7.07;;;3.85;;
51566;SDS011;37657;53.182;5.638;2023-03-14T12:43:39;10.10;;;3.50;;
51566;SDS011;37657;53.182;5.638;2023-03-14T12:46:14;9.68;;;3.60;;
51566;SDS011;37657;53.182;5.638;2023-03-14T12:48:45;5.70;;;3.38;;
51566;SDS011;37657;53.182;5.638;2023-03-14T12:51:20;7.50;;;2.63;;
51566;SDS011;37657;53.182;5.638;2023-03-14T12:57:13;7.50;;;3.38;;
51566;SDS011;37657;53.182;5.638;2023-03-14T12:59:45;27.70;;;6.53;;
51566;SDS011;37657;53.182;5.638;2023-03-14T13:05:00;7.15;;;2.92;;
51566;SDS011;37657;53.182;5.638;2023-03-14T13:07:31;15.55;;;3.65;;
51566;SDS011;37657;53.182;5.638;2023-03-14T13:10:39;8.35;;;3.25;;
51566;SDS011;37657;53.182;5.638;2023-03-14T13:13:19;4.05;;;2.25;;
51566;SDS011;37657;53.182;5.638;2023-03-14T13:15:54;7.00;;;3.67;;
51566;SDS011;37657;53.182;5.638;2023-03-14T13:18:38;9.48;;;3.55;;
51566;SDS011;37657;53.182;5.638;2023-03-14T13:21:22;6.20;;;3.42;;
51566;SDS011;37657;53.182;5.638;2023-03-14T13:24:33;4.25;;;3.15;;
51566;SDS011;37657;53.182;5.638;2023-03-14T13:26:49;7.40;;;2.55;;
51566;SDS011;37657;53.182;5.638;2023-03-14T13:29:24;8.50;;;3.15;;
51566;SDS011;37657;53.182;5.638;2023-03-14T13:31:55;10.10;;;4.38;;
51566;SDS011;37657;53.182;5.638;2023-03-14T13:34:28;3.80;;;2.10;;
51566;SDS011;37657;53.182;5.638;2023-03-14T13:36:54;9.75;;;3.53;;
51566;SDS011;37657;53.182;5.638;2023-03-14T13:39:21;6.43;;;1.98;;
51566;SDS011;37657;53.182;5.638;2023-03-14T13:41:50;5.10;;;2.63;;
51566;SDS011;37657;53.182;5.638;2023-03-14T13:44:24;4.35;;;2.47;;
51566;SDS011;37657;53.182;5.638;2023-03-14T13:46:57;5.68;;;2.47;;
51566;SDS011;37657;53.182;5.638;2023-03-14T13:49:24;12.50;;;3.30;;
51566;SDS011;37657;53.182;5.638;2023-03-14T13:51:50;2.45;;;1.70;;
51566;SDS011;37657;53.182;5.638;2023-03-14T13:54:17;7.60;;;2.58;;
51566;SDS011;37657;53.182;5.638;2023-03-14T13:56:44;17.38;;;3.92;;
51566;SDS011;37657;53.182;5.638;2023-03-14T13:59:23;5.40;;;2.63;;
51566;SDS011;37657;53.182;5.638;2023-03-14T14:01:49;6.93;;;2.72;;
51566;SDS011;37657;53.182;5.638;2023-03-14T14:04:18;7.78;;;2.80;;
51566;SDS011;37657;53.182;5.638;2023-03-14T14:06:50;6.93;;;3.55;;
51566;SDS011;37657;53.182;5.638;2023-03-14T14:09:21;5.45;;;2.35;;
51566;SDS011;37657;53.182;5.638;2023-03-14T14:11:55;14.55;;;3.30;;
51566;SDS011;37657;53.182;5.638;2023-03-14T14:14:32;6.95;;;3.05;;
51566;SDS011;37657;53.182;5.638;2023-03-14T14:17:21;5.60;;;3.60;;
51566;SDS011;37657;53.182;5.638;2023-03-14T14:19:52;8.65;;;4.10;;
51566;SDS011;37657;53.182;5.638;2023-03-14T14:22:19;5.22;;;2.88;;
51566;SDS011;37657;53.182;5.638;2023-03-14T14:24:45;5.78;;;3.25;;
51566;SDS011;37657;53.182;5.638;2023-03-14T14:27:35;8.00;;;3.13;;
51566;SDS011;37657;53.182;5.638;2023-03-14T14:30:05;10.75;;;2.90;;
51566;SDS011;37657;53.182;5.638;2023-03-14T14:32:43;10.30;;;5.32;;
51566;SDS011;37657;53.182;5.638;2023-03-14T14:35:17;24.98;;;4.93;;
51566;SDS011;37657;53.182;5.638;2023-03-14T14:37:51;18.20;;;4.82;;
51566;SDS011;37657;53.182;5.638;2023-03-14T14:40:19;10.60;;;4.45;;
51566;SDS011;37657;53.182;5.638;2023-03-14T14:42:50;8.10;;;3.70;;
51566;SDS011;37657;53.182;5.638;2023-03-14T14:45:17;6.13;;;2.70;;
51566;SDS011;37657;53.182;5.638;2023-03-14T14:47:51;5.20;;;2.88;;
51566;SDS011;37657;53.182;5.638;2023-03-14T14:50:21;7.32;;;3.08;;
51566;SDS011;37657;53.182;5.638;2023-03-14T14:53:02;5.75;;;2.38;;
51566;SDS011;37657;53.182;5.638;2023-03-14T14:55:44;12.27;;;4.15;;
51566;SDS011;37657;53.182;5.638;2023-03-14T14:58:22;5.38;;;1.90;;
51566;SDS011;37657;53.182;5.638;2023-03-14T15:03:28;28.90;;;3.45;;
51566;SDS011;37657;53.182;5.638;2023-03-14T15:05:56;6.03;;;2.42;;
51566;SDS011;37657;53.182;5.638;2023-03-14T15:08:21;6.72;;;3.40;;
51566;SDS011;37657;53.182;5.638;2023-03-14T15:10:48;11.00;;;3.22;;
51566;SDS011;37657;53.182;5.638;2023-03-14T15:13:14;8.93;;;3.72;;
51566;SDS011;37657;53.182;5.638;2023-03-14T15:15:40;6.78;;;3.50;;
51566;SDS011;37657;53.182;5.638;2023-03-14T15:18:17;9.32;;;4.40;;
51566;SDS011;37657;53.182;5.638;2023-03-14T15:20:43;8.75;;;3.72;;
51566;SDS011;37657;53.182;5.638;2023-03-14T15:23:13;11.40;;;4.30;;
51566;SDS011;37657;53.182;5.638;2023-03-14T15:25:41;12.73;;;3.30;;
51566;SDS011;37657;53.182;5.638;2023-03-14T15:28:17;7.05;;;3.70;;
51566;SDS011;37657;53.182;5.638;2023-03-14T15:30:45;9.00;;;3.63;;
51566;SDS011;37657;53.182;5.638;2023-03-14T15:33:12;9.32;;;5.53;;
51566;SDS011;37657;53.182;5.638;2023-03-14T15:35:38;12.52;;;3.67;;
51566;SDS011;37657;53.182;5.638;2023-03-14T15:38:04;19.23;;;4.30;;